sensor_id;sensor_type;location;lat;lon;timestamp;P1;durP1;ratioP1;P2;durP2;ratioP2
13801;SDS011;6972;51.518;6.918;2023-04-22T00:00:22;10.60;;;7.97;;
13801;SDS011;6972;51.518;6.918;2023-04-22T00:02:48;12.07;;;7.93;;
13801;SDS011;6972;51.518;6.918;2023-04-22T00:05:14;9.63;;;7.60;;
13801;SDS011;6972;51.518;6.918;2023-04-22T00:07:42;11.55;;;7.82;;
13801;SDS011;6972;51.518;6.918;2023-04-22T00:10:08;10.63;;;7.78;;
13801;SDS011;6972;51.518;6.918;2023-04-22T00:12:35;12.63;;;8.52;;
13801;SDS011;6972;51.518;6.918;2023-04-22T00:15:07;11.82;;;8.25;;
13801;SDS011;6972;51.518;6.918;2023-04-22T00:17:37;10.52;;;8.15;;
13801;SDS011;6972;51.518;6.918;2023-04-22T00:20:05;10.88;;;8.43;;
13801;SDS011;6972;51.518;6.918;2023-04-22T00:22:32;14.20;;;8.98;;
13801;SDS011;6972;51.518;6.918;2023-04-22T00:24:57;11.30;;;8.33;;
13801;SDS011;6972;51.518;6.918;2023-04-22T00:27:25;13.93;;;9.07;;
13801;SDS011;6972;51.518;6.918;2023-04-22T00:29:51;13.50;;;8.40;;
13801;SDS011;6972;51.518;6.918;2023-04-22T00:32:16;13.23;;;7.90;;
13801;SDS011;6972;51.518;6.918;2023-04-22T00:34:42;12.60;;;8.27;;
13801;SDS011;6972;51.518;6.918;2023-04-22T00:37:08;18.23;;;8.88;;
13801;SDS011;6972;51.518;6.918;2023-04-22T00:39:34;13.03;;;8.67;;
13801;SDS011;6972;51.518;6.918;2023-04-22T00:42:03;13.02;;;9.20;;
13801;SDS011;6972;51.518;6.918;2023-04-22T00:44:30;13.43;;;9.02;;
13801;SDS011;6972;51.518;6.918;2023-04-22T00:46:56;10.70;;;8.17;;
13801;SDS011;6972;51.518;6.918;2023-04-22T00:49:22;11.57;;;8.27;;
13801;SDS011;6972;51.518;6.918;2023-04-22T00:51:57;16.33;;;9.00;;
13801;SDS011;6972;51.518;6.918;2023-04-22T00:54:44;12.67;;;8.77;;
13801;SDS011;6972;51.518;6.918;2023-04-22T00:57:10;12.43;;;8.57;;
13801;SDS011;6972;51.518;6.918;2023-04-22T00:59:36;13.68;;;10.05;;
13801;SDS011;6972;51.518;6.918;2023-04-22T01:02:03;15.77;;;9.15;;
13801;SDS011;6972;51.518;6.918;2023-04-22T01:04:29;14.10;;;10.68;;
13801;SDS011;6972;51.518;6.918;2023-04-22T01:06:55;15.33;;;9.97;;
13801;SDS011;6972;51.518;6.918;2023-04-22T01:09:21;16.38;;;10.98;;
13801;SDS011;6972;51.518;6.918;2023-04-22T01:11:47;15.87;;;11.13;;
13801;SDS011;6972;51.518;6.918;2023-04-22T01:14:13;14.80;;;10.07;;
13801;SDS011;6972;51.518;6.918;2023-04-22T01:16:39;13.10;;;10.50;;
13801;SDS011;6972;51.518;6.918;2023-04-22T01:19:07;13.30;;;9.90;;
13801;SDS011;6972;51.518;6.918;2023-04-22T01:21:34;14.90;;;10.30;;
13801;SDS011;6972;51.518;6.918;2023-04-22T01:24:01;15.23;;;11.32;;
13801;SDS011;6972;51.518;6.918;2023-04-22T01:26:27;14.77;;;10.65;;
13801;SDS011;6972;51.518;6.918;2023-04-22T01:28:53;16.47;;;10.63;;
13801;SDS011;6972;51.518;6.918;2023-04-22T01:31:19;14.68;;;10.90;;
13801;SDS011;6972;51.518;6.918;2023-04-22T01:33:45;15.50;;;10.95;;
13801;SDS011;6972;51.518;6.918;2023-04-22T01:36:12;17.97;;;10.47;;
13801;SDS011;6972;51.518;6.918;2023-04-22T01:38:39;15.30;;;10.10;;
13801;SDS011;6972;51.518;6.918;2023-04-22T01:41:05;17.13;;;10.75;;
13801;SDS011;6972;51.518;6.918;2023-04-22T01:43:31;14.57;;;10.55;;
13801;SDS011;6972;51.518;6.918;2023-04-22T01:45:59;16.87;;;10.10;;
13801;SDS011;6972;51.518;6.918;2023-04-22T01:48:25;16.23;;;9.60;;
13801;SDS011;6972;51.518;6.918;2023-04-22T01:50:52;11.77;;;8.85;;
13801;SDS011;6972;51.518;6.918;2023-04-22T01:53:17;15.50;;;9.43;;
13801;SDS011;6972;51.518;6.918;2023-04-22T01:55:43;14.63;;;9.05;;
13801;SDS011;6972;51.518;6.918;2023-04-22T01:58:09;13.30;;;9.63;;
13801;SDS011;6972;51.518;6.918;2023-04-22T02:00:35;11.27;;;9.00;;
13801;SDS011;6972;51.518;6.918;2023-04-22T02:03:01;12.05;;;9.73;;
13801;SDS011;6972;51.518;6.918;2023-04-22T02:05:27;13.38;;;9.63;;
13801;SDS011;6972;51.518;6.918;2023-04-22T02:07:53;12.65;;;9.50;;
13801;SDS011;6972;51.518;6.918;2023-04-22T02:10:19;14.80;;;9.60;;
13801;SDS011;6972;51.518;6.918;2023-04-22T02:12:45;13.67;;;9.80;;
13801;SDS011;6972;51.518;6.918;2023-04-22T02:15:11;13.00;;;8.93;;
13801;SDS011;6972;51.518;6.918;2023-04-22T02:17:37;15.95;;;9.55;;
13801;SDS011;6972;51.518;6.918;2023-04-22T02:20:03;16.65;;;8.88;;
13801;SDS011;6972;51.518;6.918;2023-04-22T02:22:30;13.80;;;8.85;;
13801;SDS011;6972;51.518;6.918;2023-04-22T02:24:58;12.75;;;8.50;;
13801;SDS011;6972;51.518;6.918;2023-04-22T02:27:25;13.23;;;9.57;;
13801;SDS011;6972;51.518;6.918;2023-04-22T02:29:51;14.98;;;9.70;;
13801;SDS011;6972;51.518;6.918;2023-04-22T02:32:17;13.52;;;9.20;;
13801;SDS011;6972;51.518;6.918;2023-04-22T02:34:43;11.83;;;9.17;;
13801;SDS011;6972;51.518;6.918;2023-04-22T02:37:09;15.05;;;9.15;;
13801;SDS011;6972;51.518;6.918;2023-04-22T02:39:35;11.88;;;8.70;;
13801;SDS011;6972;51.518;6.918;2023-04-22T02:42:01;13.00;;;8.67;;
13801;SDS011;6972;51.518;6.918;2023-04-22T02:44:46;14.10;;;9.03;;
13801;SDS011;6972;51.518;6.918;2023-04-22T02:47:12;13.02;;;8.30;;
13801;SDS011;6972;51.518;6.918;2023-04-22T02:49:38;11.27;;;8.02;;
13801;SDS011;6972;51.518;6.918;2023-04-22T02:52:03;10.37;;;7.90;;
13801;SDS011;6972;51.518;6.918;2023-04-22T02:54:30;12.57;;;8.90;;
13801;SDS011;6972;51.518;6.918;2023-04-22T02:56:56;12.52;;;8.68;;
13801;SDS011;6972;51.518;6.918;2023-04-22T02:59:22;13.57;;;8.60;;
13801;SDS011;6972;51.518;6.918;2023-04-22T03:01:48;12.75;;;9.13;;
13801;SDS011;6972;51.518;6.918;2023-04-22T03:04:14;11.60;;;8.85;;
13801;SDS011;6972;51.518;6.918;2023-04-22T03:13:12;11.93;;;8.82;;
13801;SDS011;6972;51.518;6.918;2023-04-22T03:15:56;14.63;;;8.65;;
13801;SDS011;6972;51.518;6.918;2023-04-22T03:18:22;12.55;;;8.45;;
13801;SDS011;6972;51.518;6.918;2023-04-22T03:20:48;13.27;;;8.65;;
13801;SDS011;6972;51.518;6.918;2023-04-22T03:23:15;15.70;;;9.27;;
13801;SDS011;6972;51.518;6.918;2023-04-22T03:25:42;10.10;;;8.20;;
13801;SDS011;6972;51.518;6.918;2023-04-22T03:28:09;11.57;;;9.02;;
13801;SDS011;6972;51.518;6.918;2023-04-22T03:30:35;13.93;;;8.73;;
13801;SDS011;6972;51.518;6.918;2023-04-22T03:33:06;13.00;;;9.13;;
13801;SDS011;6972;51.518;6.918;2023-04-22T03:36:10;11.65;;;8.25;;
13801;SDS011;6972;51.518;6.918;2023-04-22T03:38:35;12.70;;;9.00;;
13801;SDS011;6972;51.518;6.918;2023-04-22T03:41:01;13.87;;;8.70;;
13801;SDS011;6972;51.518;6.918;2023-04-22T03:43:27;13.27;;;9.23;;
13801;SDS011;6972;51.518;6.918;2023-04-22T03:45:53;9.85;;;8.25;;
13801;SDS011;6972;51.518;6.918;2023-04-22T03:48:19;11.63;;;9.05;;
13801;SDS011;6972;51.518;6.918;2023-04-22T03:50:45;13.10;;;9.20;;
13801;SDS011;6972;51.518;6.918;2023-04-22T03:53:11;13.40;;;8.90;;
13801;SDS011;6972;51.518;6.918;2023-04-22T03:55:37;11.20;;;9.00;;
13801;SDS011;6972;51.518;6.918;2023-04-22T03:58:03;12.90;;;8.90;;
13801;SDS011;6972;51.518;6.918;2023-04-22T04:00:29;12.73;;;9.40;;
13801;SDS011;6972;51.518;6.918;2023-04-22T04:02:55;12.88;;;8.88;;
13801;SDS011;6972;51.518;6.918;2023-04-22T04:05:21;11.10;;;8.65;;
13801;SDS011;6972;51.518;6.918;2023-04-22T04:07:47;14.45;;;8.90;;
13801;SDS011;6972;51.518;6.918;2023-04-22T04:10:13;16.20;;;8.90;;
13801;SDS011;6972;51.518;6.918;2023-04-22T04:12:39;13.85;;;9.68;;
13801;SDS011;6972;51.518;6.918;2023-04-22T04:15:05;11.70;;;9.05;;
13801;SDS011;6972;51.518;6.918;2023-04-22T04:17:31;17.65;;;9.73;;
13801;SDS011;6972;51.518;6.918;2023-04-22T04:19:57;12.40;;;8.43;;
13801;SDS011;6972;51.518;6.918;2023-04-22T04:22:23;14.25;;;8.95;;
13801;SDS011;6972;51.518;6.918;2023-04-22T04:24:49;12.82;;;8.52;;
13801;SDS011;6972;51.518;6.918;2023-04-22T04:27:16;17.67;;;9.00;;
13801;SDS011;6972;51.518;6.918;2023-04-22T04:29:42;12.52;;;8.05;;
13801;SDS011;6972;51.518;6.918;2023-04-22T04:32:08;12.32;;;8.70;;
13801;SDS011;6972;51.518;6.918;2023-04-22T04:34:34;12.70;;;8.65;;
13801;SDS011;6972;51.518;6.918;2023-04-22T04:37:01;14.70;;;8.27;;
13801;SDS011;6972;51.518;6.918;2023-04-22T04:39:27;12.43;;;7.45;;
13801;SDS011;6972;51.518;6.918;2023-04-22T04:41:53;11.95;;;9.18;;
13801;SDS011;6972;51.518;6.918;2023-04-22T04:44:22;12.05;;;8.38;;
13801;SDS011;6972;51.518;6.918;2023-04-22T04:46:50;11.50;;;8.32;;
13801;SDS011;6972;51.518;6.918;2023-04-22T04:49:16;12.88;;;9.15;;
13801;SDS011;6972;51.518;6.918;2023-04-22T04:51:42;13.43;;;8.98;;
13801;SDS011;6972;51.518;6.918;2023-04-22T04:54:08;11.82;;;9.05;;
13801;SDS011;6972;51.518;6.918;2023-04-22T05:17:26;13.90;;;8.65;;
13801;SDS011;6972;51.518;6.918;2023-04-22T05:19:52;12.43;;;8.05;;
13801;SDS011;6972;51.518;6.918;2023-04-22T05:22:18;13.33;;;8.37;;
13801;SDS011;6972;51.518;6.918;2023-04-22T05:24:43;14.20;;;9.05;;
13801;SDS011;6972;51.518;6.918;2023-04-22T05:27:09;13.52;;;8.52;;
13801;SDS011;6972;51.518;6.918;2023-04-22T05:29:35;12.23;;;9.15;;
13801;SDS011;6972;51.518;6.918;2023-04-22T05:32:01;16.65;;;9.05;;
13801;SDS011;6972;51.518;6.918;2023-04-22T05:34:27;14.98;;;8.77;;
13801;SDS011;6972;51.518;6.918;2023-04-22T05:36:53;16.50;;;8.82;;
13801;SDS011;6972;51.518;6.918;2023-04-22T05:39:19;13.00;;;8.77;;
13801;SDS011;6972;51.518;6.918;2023-04-22T05:41:45;10.50;;;8.63;;
13801;SDS011;6972;51.518;6.918;2023-04-22T05:44:11;16.88;;;9.18;;
13801;SDS011;6972;51.518;6.918;2023-04-22T05:46:37;13.00;;;9.07;;
13801;SDS011;6972;51.518;6.918;2023-04-22T05:49:03;12.25;;;8.45;;
13801;SDS011;6972;51.518;6.918;2023-04-22T05:51:29;13.98;;;8.60;;
13801;SDS011;6972;51.518;6.918;2023-04-22T05:53:55;12.00;;;8.63;;
13801;SDS011;6972;51.518;6.918;2023-04-22T05:56:21;11.90;;;8.63;;
13801;SDS011;6972;51.518;6.918;2023-04-22T05:58:47;10.82;;;7.80;;
13801;SDS011;6972;51.518;6.918;2023-04-22T06:01:12;11.38;;;8.13;;
13801;SDS011;6972;51.518;6.918;2023-04-22T06:03:38;10.80;;;7.88;;
13801;SDS011;6972;51.518;6.918;2023-04-22T06:06:04;12.80;;;8.32;;
13801;SDS011;6972;51.518;6.918;2023-04-22T06:08:30;14.13;;;8.48;;
13801;SDS011;6972;51.518;6.918;2023-04-22T06:10:56;10.85;;;8.10;;
13801;SDS011;6972;51.518;6.918;2023-04-22T06:13:22;10.50;;;8.23;;
13801;SDS011;6972;51.518;6.918;2023-04-22T06:15:49;10.52;;;7.68;;
13801;SDS011;6972;51.518;6.918;2023-04-22T06:18:15;8.55;;;7.50;;
13801;SDS011;6972;51.518;6.918;2023-04-22T06:20:41;12.18;;;7.10;;
13801;SDS011;6972;51.518;6.918;2023-04-22T06:23:07;9.30;;;7.25;;
13801;SDS011;6972;51.518;6.918;2023-04-22T06:25:33;10.10;;;7.47;;
13801;SDS011;6972;51.518;6.918;2023-04-22T06:27:59;11.35;;;7.90;;
13801;SDS011;6972;51.518;6.918;2023-04-22T06:30:25;10.20;;;7.45;;
13801;SDS011;6972;51.518;6.918;2023-04-22T06:32:51;9.38;;;7.05;;
13801;SDS011;6972;51.518;6.918;2023-04-22T06:35:19;11.70;;;7.75;;
13801;SDS011;6972;51.518;6.918;2023-04-22T06:37:45;13.65;;;7.35;;
13801;SDS011;6972;51.518;6.918;2023-04-22T06:40:12;11.48;;;7.75;;
13801;SDS011;6972;51.518;6.918;2023-04-22T06:42:38;10.43;;;8.05;;
13801;SDS011;6972;51.518;6.918;2023-04-22T06:45:04;11.18;;;7.80;;
13801;SDS011;6972;51.518;6.918;2023-04-22T06:47:30;11.77;;;7.53;;
13801;SDS011;6972;51.518;6.918;2023-04-22T06:49:56;10.80;;;7.75;;
13801;SDS011;6972;51.518;6.918;2023-04-22T06:52:22;9.75;;;6.55;;
13801;SDS011;6972;51.518;6.918;2023-04-22T06:54:47;8.40;;;6.53;;
13801;SDS011;6972;51.518;6.918;2023-04-22T06:57:13;11.63;;;7.65;;
13801;SDS011;6972;51.518;6.918;2023-04-22T06:59:39;16.58;;;7.45;;
13801;SDS011;6972;51.518;6.918;2023-04-22T07:02:05;12.60;;;9.00;;
13801;SDS011;6972;51.518;6.918;2023-04-22T07:04:31;8.45;;;6.60;;
13801;SDS011;6972;51.518;6.918;2023-04-22T07:06:57;10.50;;;7.75;;
13801;SDS011;6972;51.518;6.918;2023-04-22T07:09:23;11.70;;;8.07;;
13801;SDS011;6972;51.518;6.918;2023-04-22T07:11:49;9.50;;;7.80;;
13801;SDS011;6972;51.518;6.918;2023-04-22T07:14:15;8.88;;;7.35;;
13801;SDS011;6972;51.518;6.918;2023-04-22T07:16:41;12.27;;;7.55;;
13801;SDS011;6972;51.518;6.918;2023-04-22T07:19:07;12.32;;;7.60;;
13801;SDS011;6972;51.518;6.918;2023-04-22T07:21:33;9.05;;;6.82;;
13801;SDS011;6972;51.518;6.918;2023-04-22T07:23:59;12.10;;;6.63;;
13801;SDS011;6972;51.518;6.918;2023-04-22T07:26:24;11.95;;;7.20;;
13801;SDS011;6972;51.518;6.918;2023-04-22T07:28:50;7.95;;;5.20;;
13801;SDS011;6972;51.518;6.918;2023-04-22T07:31:16;5.63;;;4.20;;
13801;SDS011;6972;51.518;6.918;2023-04-22T07:33:42;5.32;;;3.90;;
13801;SDS011;6972;51.518;6.918;2023-04-22T07:36:08;8.38;;;4.55;;
13801;SDS011;6972;51.518;6.918;2023-04-22T07:38:34;7.72;;;4.28;;
13801;SDS011;6972;51.518;6.918;2023-04-22T07:41:00;5.25;;;4.32;;
13801;SDS011;6972;51.518;6.918;2023-04-22T07:43:26;9.15;;;4.38;;
13801;SDS011;6972;51.518;6.918;2023-04-22T07:45:51;8.20;;;4.25;;
13801;SDS011;6972;51.518;6.918;2023-04-22T07:48:17;5.68;;;4.15;;
13801;SDS011;6972;51.518;6.918;2023-04-22T07:50:43;8.27;;;4.38;;
13801;SDS011;6972;51.518;6.918;2023-04-22T07:53:10;5.35;;;3.38;;
13801;SDS011;6972;51.518;6.918;2023-04-22T07:55:36;5.60;;;2.95;;
13801;SDS011;6972;51.518;6.918;2023-04-22T07:58:02;4.80;;;2.13;;
13801;SDS011;6972;51.518;6.918;2023-04-22T08:00:31;3.20;;;2.17;;
13801;SDS011;6972;51.518;6.918;2023-04-22T08:02:58;2.80;;;2.10;;
13801;SDS011;6972;51.518;6.918;2023-04-22T08:05:24;4.25;;;2.15;;
13801;SDS011;6972;51.518;6.918;2023-04-22T08:07:50;6.75;;;2.20;;
13801;SDS011;6972;51.518;6.918;2023-04-22T08:10:16;6.43;;;2.35;;
13801;SDS011;6972;51.518;6.918;2023-04-22T08:12:42;4.43;;;2.35;;
13801;SDS011;6972;51.518;6.918;2023-04-22T08:15:10;4.00;;;2.10;;
13801;SDS011;6972;51.518;6.918;2023-04-22T08:17:36;2.65;;;2.20;;
13801;SDS011;6972;51.518;6.918;2023-04-22T08:20:02;2.97;;;2.30;;
13801;SDS011;6972;51.518;6.918;2023-04-22T08:22:29;3.38;;;2.20;;
13801;SDS011;6972;51.518;6.918;2023-04-22T08:24:56;2.15;;;1.90;;
13801;SDS011;6972;51.518;6.918;2023-04-22T08:27:21;3.05;;;1.80;;
13801;SDS011;6972;51.518;6.918;2023-04-22T08:29:47;7.85;;;2.25;;
13801;SDS011;6972;51.518;6.918;2023-04-22T08:32:14;3.50;;;2.00;;
13801;SDS011;6972;51.518;6.918;2023-04-22T08:34:39;2.90;;;2.10;;
13801;SDS011;6972;51.518;6.918;2023-04-22T08:37:05;4.07;;;1.75;;
13801;SDS011;6972;51.518;6.918;2023-04-22T08:39:31;3.45;;;1.92;;
13801;SDS011;6972;51.518;6.918;2023-04-22T08:41:57;3.55;;;1.90;;
13801;SDS011;6972;51.518;6.918;2023-04-22T08:44:23;4.25;;;2.38;;
13801;SDS011;6972;51.518;6.918;2023-04-22T08:46:49;3.22;;;2.05;;
13801;SDS011;6972;51.518;6.918;2023-04-22T08:49:16;3.10;;;1.88;;
13801;SDS011;6972;51.518;6.918;2023-04-22T08:51:42;2.30;;;1.83;;
13801;SDS011;6972;51.518;6.918;2023-04-22T08:54:09;5.70;;;1.98;;
13801;SDS011;6972;51.518;6.918;2023-04-22T08:56:35;2.97;;;2.03;;
13801;SDS011;6972;51.518;6.918;2023-04-22T08:59:04;6.38;;;1.90;;
13801;SDS011;6972;51.518;6.918;2023-04-22T09:01:31;2.58;;;1.90;;
13801;SDS011;6972;51.518;6.918;2023-04-22T09:03:58;4.72;;;2.47;;
13801;SDS011;6972;51.518;6.918;2023-04-22T09:06:24;6.40;;;2.20;;
13801;SDS011;6972;51.518;6.918;2023-04-22T09:08:51;5.00;;;2.00;;
13801;SDS011;6972;51.518;6.918;2023-04-22T09:11:19;3.25;;;1.70;;
13801;SDS011;6972;51.518;6.918;2023-04-22T09:13:44;4.60;;;1.90;;
13801;SDS011;6972;51.518;6.918;2023-04-22T09:16:11;2.05;;;1.65;;
13801;SDS011;6972;51.518;6.918;2023-04-22T09:18:42;2.95;;;2.08;;
13801;SDS011;6972;51.518;6.918;2023-04-22T09:21:10;3.55;;;2.30;;
13801;SDS011;6972;51.518;6.918;2023-04-22T09:23:47;4.25;;;2.10;;
13801;SDS011;6972;51.518;6.918;2023-04-22T09:26:14;3.30;;;1.95;;
13801;SDS011;6972;51.518;6.918;2023-04-22T09:28:55;6.50;;;1.90;;
13801;SDS011;6972;51.518;6.918;2023-04-22T09:31:25;5.35;;;1.90;;
13801;SDS011;6972;51.518;6.918;2023-04-22T09:33:58;2.42;;;1.90;;
13801;SDS011;6972;51.518;6.918;2023-04-22T09:36:25;5.28;;;1.95;;
13801;SDS011;6972;51.518;6.918;2023-04-22T09:38:55;2.72;;;1.60;;
13801;SDS011;6972;51.518;6.918;2023-04-22T09:41:28;4.22;;;2.20;;
13801;SDS011;6972;51.518;6.918;2023-04-22T09:44:03;3.00;;;2.20;;
13801;SDS011;6972;51.518;6.918;2023-04-22T09:46:30;2.65;;;1.88;;
13801;SDS011;6972;51.518;6.918;2023-04-22T09:48:58;3.38;;;2.20;;
13801;SDS011;6972;51.518;6.918;2023-04-22T09:51:24;3.63;;;2.05;;
13801;SDS011;6972;51.518;6.918;2023-04-22T09:53:57;2.50;;;1.98;;
13801;SDS011;6972;51.518;6.918;2023-04-22T09:56:50;4.13;;;1.90;;
13801;SDS011;6972;51.518;6.918;2023-04-22T09:59:24;2.28;;;2.00;;
13801;SDS011;6972;51.518;6.918;2023-04-22T10:01:54;3.42;;;1.98;;
13801;SDS011;6972;51.518;6.918;2023-04-22T10:04:21;3.47;;;1.88;;
13801;SDS011;6972;51.518;6.918;2023-04-22T10:06:49;3.72;;;2.00;;
13801;SDS011;6972;51.518;6.918;2023-04-22T10:09:19;4.10;;;1.95;;
13801;SDS011;6972;51.518;6.918;2023-04-22T10:11:46;4.65;;;1.77;;
13801;SDS011;6972;51.518;6.918;2023-04-22T10:14:14;3.03;;;2.10;;
13801;SDS011;6972;51.518;6.918;2023-04-22T10:16:41;3.03;;;1.98;;
13801;SDS011;6972;51.518;6.918;2023-04-22T10:19:09;3.55;;;2.20;;
13801;SDS011;6972;51.518;6.918;2023-04-22T10:21:42;5.28;;;2.30;;
13801;SDS011;6972;51.518;6.918;2023-04-22T10:24:14;4.13;;;1.80;;
13801;SDS011;6972;51.518;6.918;2023-04-22T10:26:47;4.47;;;1.98;;
13801;SDS011;6972;51.518;6.918;2023-04-22T10:29:14;2.63;;;1.80;;
13801;SDS011;6972;51.518;6.918;2023-04-22T10:31:42;3.83;;;2.03;;
13801;SDS011;6972;51.518;6.918;2023-04-22T10:34:13;5.57;;;1.88;;
13801;SDS011;6972;51.518;6.918;2023-04-22T10:36:52;2.78;;;1.90;;
13801;SDS011;6972;51.518;6.918;2023-04-22T10:39:25;3.15;;;2.03;;
13801;SDS011;6972;51.518;6.918;2023-04-22T10:41:53;3.38;;;2.05;;
13801;SDS011;6972;51.518;6.918;2023-04-22T10:44:21;2.88;;;1.83;;
13801;SDS011;6972;51.518;6.918;2023-04-22T10:49:28;4.57;;;1.88;;
13801;SDS011;6972;51.518;6.918;2023-04-22T10:51:56;4.90;;;2.40;;
13801;SDS011;6972;51.518;6.918;2023-04-22T10:57:01;6.55;;;2.30;;
13801;SDS011;6972;51.518;6.918;2023-04-22T10:59:28;5.65;;;2.05;;
13801;SDS011;6972;51.518;6.918;2023-04-22T11:01:54;2.47;;;1.90;;
13801;SDS011;6972;51.518;6.918;2023-04-22T11:04:20;6.97;;;2.10;;
13801;SDS011;6972;51.518;6.918;2023-04-22T11:07:47;4.82;;;2.20;;
13801;SDS011;6972;51.518;6.918;2023-04-22T11:09:51;3.47;;;2.25;;
13801;SDS011;6972;51.518;6.918;2023-04-22T11:17:43;2.70;;;2.00;;
13801;SDS011;6972;51.518;6.918;2023-04-22T11:20:11;4.43;;;2.50;;
13801;SDS011;6972;51.518;6.918;2023-04-22T11:22:38;3.28;;;1.98;;
13801;SDS011;6972;51.518;6.918;2023-04-22T11:25:05;4.47;;;2.30;;
13801;SDS011;6972;51.518;6.918;2023-04-22T11:27:34;2.78;;;2.30;;
13801;SDS011;6972;51.518;6.918;2023-04-22T11:32:26;4.63;;;2.10;;
13801;SDS011;6972;51.518;6.918;2023-04-22T11:34:52;3.65;;;2.25;;
13801;SDS011;6972;51.518;6.918;2023-04-22T11:37:19;4.05;;;1.98;;
13801;SDS011;6972;51.518;6.918;2023-04-22T11:39:48;11.50;;;2.05;;
13801;SDS011;6972;51.518;6.918;2023-04-22T11:42:19;5.32;;;2.13;;
13801;SDS011;6972;51.518;6.918;2023-04-22T11:44:49;3.90;;;2.10;;
13801;SDS011;6972;51.518;6.918;2023-04-22T11:47:15;2.65;;;1.63;;
13801;SDS011;6972;51.518;6.918;2023-04-22T11:49:41;4.28;;;2.00;;
13801;SDS011;6972;51.518;6.918;2023-04-22T11:52:07;2.75;;;1.75;;
13801;SDS011;6972;51.518;6.918;2023-04-22T11:54:34;4.40;;;2.05;;
13801;SDS011;6972;51.518;6.918;2023-04-22T11:57:04;3.22;;;1.88;;
13801;SDS011;6972;51.518;6.918;2023-04-22T11:59:32;3.05;;;2.00;;
13801;SDS011;6972;51.518;6.918;2023-04-22T12:01:58;5.38;;;2.20;;
13801;SDS011;6972;51.518;6.918;2023-04-22T12:04:24;4.63;;;1.88;;
13801;SDS011;6972;51.518;6.918;2023-04-22T12:06:50;7.03;;;1.83;;
13801;SDS011;6972;51.518;6.918;2023-04-22T12:09:22;7.93;;;2.00;;
13801;SDS011;6972;51.518;6.918;2023-04-22T12:11:50;3.95;;;2.05;;
13801;SDS011;6972;51.518;6.918;2023-04-22T12:14:16;5.20;;;2.17;;
13801;SDS011;6972;51.518;6.918;2023-04-22T12:16:42;3.08;;;1.90;;
13801;SDS011;6972;51.518;6.918;2023-04-22T12:19:11;6.15;;;2.35;;
13801;SDS011;6972;51.518;6.918;2023-04-22T12:21:36;4.53;;;1.90;;
13801;SDS011;6972;51.518;6.918;2023-04-22T12:24:06;3.03;;;2.00;;
13801;SDS011;6972;51.518;6.918;2023-04-22T12:26:36;3.55;;;2.10;;
13801;SDS011;6972;51.518;6.918;2023-04-22T12:29:02;5.28;;;2.20;;
13801;SDS011;6972;51.518;6.918;2023-04-22T12:31:28;3.88;;;2.13;;
13801;SDS011;6972;51.518;6.918;2023-04-22T12:33:54;4.03;;;2.15;;
13801;SDS011;6972;51.518;6.918;2023-04-22T12:36:20;3.65;;;1.88;;
13801;SDS011;6972;51.518;6.918;2023-04-22T12:38:50;9.13;;;1.92;;
13801;SDS011;6972;51.518;6.918;2023-04-22T12:41:19;6.68;;;2.47;;
13801;SDS011;6972;51.518;6.918;2023-04-22T12:43:47;5.63;;;2.10;;
13801;SDS011;6972;51.518;6.918;2023-04-22T12:46:13;5.70;;;2.20;;
13801;SDS011;6972;51.518;6.918;2023-04-22T12:48:39;4.47;;;2.10;;
13801;SDS011;6972;51.518;6.918;2023-04-22T12:51:06;4.75;;;1.88;;
13801;SDS011;6972;51.518;6.918;2023-04-22T12:53:32;3.67;;;2.15;;
13801;SDS011;6972;51.518;6.918;2023-04-22T12:55:58;5.00;;;2.00;;
13801;SDS011;6972;51.518;6.918;2023-04-22T12:58:24;3.63;;;1.88;;
13801;SDS011;6972;51.518;6.918;2023-04-22T13:00:50;6.05;;;2.13;;
13801;SDS011;6972;51.518;6.918;2023-04-22T13:03:16;7.68;;;2.45;;
13801;SDS011;6972;51.518;6.918;2023-04-22T13:05:43;6.03;;;2.33;;
13801;SDS011;6972;51.518;6.918;2023-04-22T13:08:09;23.23;;;4.93;;
13801;SDS011;6972;51.518;6.918;2023-04-22T13:10:35;18.48;;;6.43;;
13801;SDS011;6972;51.518;6.918;2023-04-22T13:13:01;26.27;;;9.20;;
13801;SDS011;6972;51.518;6.918;2023-04-22T13:15:32;24.95;;;8.57;;
13801;SDS011;6972;51.518;6.918;2023-04-22T13:17:58;11.88;;;5.20;;
13801;SDS011;6972;51.518;6.918;2023-04-22T13:20:24;6.72;;;2.60;;
13801;SDS011;6972;51.518;6.918;2023-04-22T13:22:50;5.80;;;2.40;;
13801;SDS011;6972;51.518;6.918;2023-04-22T13:25:16;5.10;;;2.30;;
13801;SDS011;6972;51.518;6.918;2023-04-22T13:27:42;5.30;;;2.28;;
13801;SDS011;6972;51.518;6.918;2023-04-22T13:30:09;4.03;;;2.30;;
13801;SDS011;6972;51.518;6.918;2023-04-22T13:32:35;6.57;;;2.50;;
13801;SDS011;6972;51.518;6.918;2023-04-22T13:35:02;6.88;;;2.50;;
13801;SDS011;6972;51.518;6.918;2023-04-22T13:37:29;6.35;;;2.35;;
13801;SDS011;6972;51.518;6.918;2023-04-22T13:39:55;4.25;;;2.20;;
13801;SDS011;6972;51.518;6.918;2023-04-22T13:42:21;7.88;;;2.78;;
13801;SDS011;6972;51.518;6.918;2023-04-22T13:44:47;7.00;;;2.25;;
13801;SDS011;6972;51.518;6.918;2023-04-22T13:47:14;6.75;;;2.40;;
13801;SDS011;6972;51.518;6.918;2023-04-22T13:49:41;4.70;;;2.35;;
13801;SDS011;6972;51.518;6.918;2023-04-22T13:52:07;6.70;;;2.30;;
13801;SDS011;6972;51.518;6.918;2023-04-22T13:54:33;5.63;;;2.20;;
13801;SDS011;6972;51.518;6.918;2023-04-22T13:56:59;6.15;;;2.45;;
13801;SDS011;6972;51.518;6.918;2023-04-22T13:59:27;8.00;;;2.65;;
13801;SDS011;6972;51.518;6.918;2023-04-22T14:01:52;8.68;;;3.30;;
13801;SDS011;6972;51.518;6.918;2023-04-22T14:04:21;9.25;;;3.95;;
13801;SDS011;6972;51.518;6.918;2023-04-22T14:06:47;4.53;;;2.88;;
13801;SDS011;6972;51.518;6.918;2023-04-22T14:09:14;6.00;;;3.30;;
13801;SDS011;6972;51.518;6.918;2023-04-22T14:11:40;5.97;;;2.83;;
13801;SDS011;6972;51.518;6.918;2023-04-22T14:14:06;7.22;;;3.15;;
13801;SDS011;6972;51.518;6.918;2023-04-22T14:16:32;8.95;;;2.88;;
13801;SDS011;6972;51.518;6.918;2023-04-22T14:18:58;5.68;;;2.85;;
13801;SDS011;6972;51.518;6.918;2023-04-22T14:21:26;4.90;;;2.85;;
13801;SDS011;6972;51.518;6.918;2023-04-22T14:23:55;7.00;;;2.42;;
13801;SDS011;6972;51.518;6.918;2023-04-22T14:26:25;6.43;;;2.70;;
13801;SDS011;6972;51.518;6.918;2023-04-22T14:28:53;7.15;;;2.92;;
13801;SDS011;6972;51.518;6.918;2023-04-22T14:31:19;9.32;;;3.50;;
13801;SDS011;6972;51.518;6.918;2023-04-22T14:33:45;6.30;;;2.58;;
13801;SDS011;6972;51.518;6.918;2023-04-22T14:36:11;7.18;;;2.85;;
13801;SDS011;6972;51.518;6.918;2023-04-22T14:38:37;8.45;;;2.72;;
13801;SDS011;6972;51.518;6.918;2023-04-22T14:41:06;3.90;;;2.28;;
13801;SDS011;6972;51.518;6.918;2023-04-22T14:43:33;11.95;;;3.05;;
13801;SDS011;6972;51.518;6.918;2023-04-22T14:45:59;6.88;;;2.58;;
13801;SDS011;6972;51.518;6.918;2023-04-22T14:48:25;7.53;;;2.70;;
13801;SDS011;6972;51.518;6.918;2023-04-22T14:50:54;3.90;;;2.17;;
13801;SDS011;6972;51.518;6.918;2023-04-22T14:53:20;5.28;;;2.20;;
13801;SDS011;6972;51.518;6.918;2023-04-22T14:55:46;7.72;;;2.20;;
13801;SDS011;6972;51.518;6.918;2023-04-22T14:58:12;6.40;;;2.45;;
13801;SDS011;6972;51.518;6.918;2023-04-22T15:00:41;2.40;;;2.20;;
13801;SDS011;6972;51.518;6.918;2023-04-22T15:03:07;5.45;;;2.47;;
13801;SDS011;6972;51.518;6.918;2023-04-22T15:05:33;5.10;;;2.08;;
13801;SDS011;6972;51.518;6.918;2023-04-22T15:07:59;4.10;;;2.30;;
13801;SDS011;6972;51.518;6.918;2023-04-22T15:10:25;4.50;;;2.17;;
13801;SDS011;6972;51.518;6.918;2023-04-22T15:12:51;3.97;;;2.25;;
13801;SDS011;6972;51.518;6.918;2023-04-22T15:15:17;5.88;;;2.67;;
13801;SDS011;6972;51.518;6.918;2023-04-22T15:17:44;5.40;;;2.58;;
13801;SDS011;6972;51.518;6.918;2023-04-22T15:20:11;6.65;;;2.53;;
13801;SDS011;6972;51.518;6.918;2023-04-22T15:22:37;7.05;;;2.63;;
13801;SDS011;6972;51.518;6.918;2023-04-22T15:25:08;3.78;;;2.38;;
13801;SDS011;6972;51.518;6.918;2023-04-22T15:27:34;5.32;;;2.72;;
13801;SDS011;6972;51.518;6.918;2023-04-22T15:30:01;6.50;;;2.95;;
13801;SDS011;6972;51.518;6.918;2023-04-22T15:32:28;3.28;;;2.50;;
13801;SDS011;6972;51.518;6.918;2023-04-22T15:34:54;7.47;;;2.72;;